sensor_id;sensor_type;location;lat;lon;timestamp;P1;durP1;ratioP1;P2;durP2;ratioP2
28070;SDS011;15383;48.408;9.968;2023-07-16T00:01:59;5.47;;;3.95;;
28070;SDS011;15383;48.408;9.968;2023-07-16T00:04:25;5.53;;;3.95;;
28070;SDS011;15383;48.408;9.968;2023-07-16T00:06:50;5.75;;;4.00;;
28070;SDS011;15383;48.408;9.968;2023-07-16T00:09:16;5.57;;;3.92;;
28070;SDS011;15383;48.408;9.968;2023-07-16T00:11:41;12.48;;;4.07;;
28070;SDS011;15383;48.408;9.968;2023-07-16T00:14:07;5.30;;;3.92;;
28070;SDS011;15383;48.408;9.968;2023-07-16T00:16:36;9.70;;;4.72;;
28070;SDS011;15383;48.408;9.968;2023-07-16T00:19:01;6.65;;;4.45;;
28070;SDS011;15383;48.408;9.968;2023-07-16T00:21:27;9.40;;;4.38;;
28070;SDS011;15383;48.408;9.968;2023-07-16T00:23:52;6.15;;;3.88;;
28070;SDS011;15383;48.408;9.968;2023-07-16T00:26:18;6.60;;;4.40;;
28070;SDS011;15383;48.408;9.968;2023-07-16T00:28:44;7.10;;;4.40;;
28070;SDS011;15383;48.408;9.968;2023-07-16T00:31:09;11.18;;;4.43;;
28070;SDS011;15383;48.408;9.968;2023-07-16T00:33:35;8.65;;;4.57;;
28070;SDS011;15383;48.408;9.968;2023-07-16T00:36:01;6.97;;;4.40;;
28070;SDS011;15383;48.408;9.968;2023-07-16T00:38:26;6.28;;;4.15;;
28070;SDS011;15383;48.408;9.968;2023-07-16T00:40:52;12.77;;;4.80;;
28070;SDS011;15383;48.408;9.968;2023-07-16T00:43:18;8.52;;;4.13;;
28070;SDS011;15383;48.408;9.968;2023-07-16T00:45:45;5.38;;;3.88;;
28070;SDS011;15383;48.408;9.968;2023-07-16T00:48:11;5.95;;;3.80;;
28070;SDS011;15383;48.408;9.968;2023-07-16T00:50:38;5.25;;;3.50;;
28070;SDS011;15383;48.408;9.968;2023-07-16T00:53:06;8.88;;;4.07;;
28070;SDS011;15383;48.408;9.968;2023-07-16T00:55:32;5.82;;;4.50;;
28070;SDS011;15383;48.408;9.968;2023-07-16T00:58:00;9.10;;;4.10;;
28070;SDS011;15383;48.408;9.968;2023-07-16T01:00:34;7.50;;;3.90;;
28070;SDS011;15383;48.408;9.968;2023-07-16T01:03:01;6.00;;;4.07;;
28070;SDS011;15383;48.408;9.968;2023-07-16T01:05:31;5.95;;;3.72;;
28070;SDS011;15383;48.408;9.968;2023-07-16T01:08:04;6.80;;;4.32;;
28070;SDS011;15383;48.408;9.968;2023-07-16T01:10:34;5.72;;;3.13;;
28070;SDS011;15383;48.408;9.968;2023-07-16T01:13:00;4.15;;;2.72;;
28070;SDS011;15383;48.408;9.968;2023-07-16T01:15:26;6.82;;;2.47;;
28070;SDS011;15383;48.408;9.968;2023-07-16T01:17:52;3.70;;;2.15;;
28070;SDS011;15383;48.408;9.968;2023-07-16T01:20:18;3.45;;;2.35;;
28070;SDS011;15383;48.408;9.968;2023-07-16T01:26:01;2.60;;;1.75;;
28070;SDS011;15383;48.408;9.968;2023-07-16T01:31:51;2.45;;;1.40;;
28070;SDS011;15383;48.408;9.968;2023-07-16T01:34:18;2.20;;;1.30;;
28070;SDS011;15383;48.408;9.968;2023-07-16T01:36:45;1.98;;;1.00;;
28070;SDS011;15383;48.408;9.968;2023-07-16T01:39:11;2.20;;;1.40;;
28070;SDS011;15383;48.408;9.968;2023-07-16T01:41:37;1.55;;;1.15;;
28070;SDS011;15383;48.408;9.968;2023-07-16T01:44:03;2.00;;;1.20;;
28070;SDS011;15383;48.408;9.968;2023-07-16T01:46:29;2.28;;;1.00;;
28070;SDS011;15383;48.408;9.968;2023-07-16T01:48:54;1.55;;;0.98;;
28070;SDS011;15383;48.408;9.968;2023-07-16T01:51:20;1.10;;;1.00;;
28070;SDS011;15383;48.408;9.968;2023-07-16T01:53:46;4.05;;;1.35;;
28070;SDS011;15383;48.408;9.968;2023-07-16T01:56:12;2.65;;;1.10;;
28070;SDS011;15383;48.408;9.968;2023-07-16T01:58:37;3.25;;;1.15;;
28070;SDS011;15383;48.408;9.968;2023-07-16T02:01:03;1.95;;;1.27;;
28070;SDS011;15383;48.408;9.968;2023-07-16T02:03:29;4.13;;;1.08;;
28070;SDS011;15383;48.408;9.968;2023-07-16T02:05:55;1.38;;;1.13;;
28070;SDS011;15383;48.408;9.968;2023-07-16T02:08:20;1.42;;;1.00;;
28070;SDS011;15383;48.408;9.968;2023-07-16T02:10:49;1.33;;;1.23;;
28070;SDS011;15383;48.408;9.968;2023-07-16T02:13:15;2.88;;;1.45;;
28070;SDS011;15383;48.408;9.968;2023-07-16T02:15:41;1.85;;;1.40;;
28070;SDS011;15383;48.408;9.968;2023-07-16T02:18:07;3.20;;;1.48;;
28070;SDS011;15383;48.408;9.968;2023-07-16T02:20:33;3.65;;;1.50;;
28070;SDS011;15383;48.408;9.968;2023-07-16T02:22:59;2.45;;;1.50;;
28070;SDS011;15383;48.408;9.968;2023-07-16T02:25:24;2.92;;;1.90;;
28070;SDS011;15383;48.408;9.968;2023-07-16T02:27:50;2.75;;;1.33;;
28070;SDS011;15383;48.408;9.968;2023-07-16T02:30:16;3.95;;;1.75;;
28070;SDS011;15383;48.408;9.968;2023-07-16T02:32:42;1.30;;;1.20;;
28070;SDS011;15383;48.408;9.968;2023-07-16T02:35:09;3.53;;;1.40;;
28070;SDS011;15383;48.408;9.968;2023-07-16T02:37:35;4.85;;;1.25;;
28070;SDS011;15383;48.408;9.968;2023-07-16T02:40:01;8.57;;;1.40;;
28070;SDS011;15383;48.408;9.968;2023-07-16T02:42:27;2.25;;;1.40;;
28070;SDS011;15383;48.408;9.968;2023-07-16T02:44:53;1.50;;;1.33;;
28070;SDS011;15383;48.408;9.968;2023-07-16T02:47:19;2.25;;;1.40;;
28070;SDS011;15383;48.408;9.968;2023-07-16T02:49:45;2.13;;;1.33;;
28070;SDS011;15383;48.408;9.968;2023-07-16T02:52:10;2.10;;;1.20;;
28070;SDS011;15383;48.408;9.968;2023-07-16T02:54:36;1.65;;;1.15;;
28070;SDS011;15383;48.408;9.968;2023-07-16T02:57:02;4.13;;;1.30;;
28070;SDS011;15383;48.408;9.968;2023-07-16T02:59:27;2.53;;;1.40;;
28070;SDS011;15383;48.408;9.968;2023-07-16T03:01:53;1.58;;;1.10;;
28070;SDS011;15383;48.408;9.968;2023-07-16T03:04:19;2.25;;;1.33;;
28070;SDS011;15383;48.408;9.968;2023-07-16T03:06:44;2.83;;;1.40;;
28070;SDS011;15383;48.408;9.968;2023-07-16T03:09:10;5.30;;;1.50;;
28070;SDS011;15383;48.408;9.968;2023-07-16T03:11:36;3.85;;;1.30;;
28070;SDS011;15383;48.408;9.968;2023-07-16T03:14:01;9.40;;;1.52;;
28070;SDS011;15383;48.408;9.968;2023-07-16T03:16:27;2.38;;;1.42;;
28070;SDS011;15383;48.408;9.968;2023-07-16T03:18:53;6.15;;;1.40;;
28070;SDS011;15383;48.408;9.968;2023-07-16T03:21:19;3.65;;;1.30;;
28070;SDS011;15383;48.408;9.968;2023-07-16T03:23:44;1.50;;;1.20;;
28070;SDS011;15383;48.408;9.968;2023-07-16T03:26:10;6.70;;;1.42;;
28070;SDS011;15383;48.408;9.968;2023-07-16T03:28:36;2.85;;;1.45;;
28070;SDS011;15383;48.408;9.968;2023-07-16T03:31:02;6.47;;;1.70;;
28070;SDS011;15383;48.408;9.968;2023-07-16T03:33:27;3.80;;;1.30;;
28070;SDS011;15383;48.408;9.968;2023-07-16T03:35:53;3.33;;;1.40;;
28070;SDS011;15383;48.408;9.968;2023-07-16T03:38:18;9.13;;;1.92;;
28070;SDS011;15383;48.408;9.968;2023-07-16T03:40:48;3.30;;;1.48;;
28070;SDS011;15383;48.408;9.968;2023-07-16T03:43:15;3.88;;;1.17;;
28070;SDS011;15383;48.408;9.968;2023-07-16T03:45:41;1.13;;;1.02;;
28070;SDS011;15383;48.408;9.968;2023-07-16T03:48:07;2.33;;;1.35;;
28070;SDS011;15383;48.408;9.968;2023-07-16T03:50:33;5.38;;;1.40;;
28070;SDS011;15383;48.408;9.968;2023-07-16T03:52:59;2.85;;;1.20;;
28070;SDS011;15383;48.408;9.968;2023-07-16T03:55:25;1.65;;;1.00;;
28070;SDS011;15383;48.408;9.968;2023-07-16T03:57:51;6.00;;;1.23;;
28070;SDS011;15383;48.408;9.968;2023-07-16T04:00:16;4.40;;;1.10;;
28070;SDS011;15383;48.408;9.968;2023-07-16T04:02:42;2.55;;;1.40;;
28070;SDS011;15383;48.408;9.968;2023-07-16T04:05:08;4.82;;;1.30;;
28070;SDS011;15383;48.408;9.968;2023-07-16T04:07:34;1.65;;;1.20;;
28070;SDS011;15383;48.408;9.968;2023-07-16T04:10:00;3.22;;;1.40;;
28070;SDS011;15383;48.408;9.968;2023-07-16T04:12:25;2.30;;;1.23;;
28070;SDS011;15383;48.408;9.968;2023-07-16T04:14:57;4.93;;;1.55;;
28070;SDS011;15383;48.408;9.968;2023-07-16T04:17:23;1.35;;;1.10;;
28070;SDS011;15383;48.408;9.968;2023-07-16T04:19:49;2.10;;;1.25;;
28070;SDS011;15383;48.408;9.968;2023-07-16T04:22:15;1.30;;;1.20;;
28070;SDS011;15383;48.408;9.968;2023-07-16T04:24:41;2.05;;;1.20;;
28070;SDS011;15383;48.408;9.968;2023-07-16T04:27:06;2.30;;;1.20;;
28070;SDS011;15383;48.408;9.968;2023-07-16T04:29:32;2.13;;;1.33;;
28070;SDS011;15383;48.408;9.968;2023-07-16T04:31:58;1.70;;;1.30;;
28070;SDS011;15383;48.408;9.968;2023-07-16T04:34:23;1.92;;;1.25;;
28070;SDS011;15383;48.408;9.968;2023-07-16T04:36:49;2.47;;;1.05;;
28070;SDS011;15383;48.408;9.968;2023-07-16T04:39:14;5.40;;;1.23;;
28070;SDS011;15383;48.408;9.968;2023-07-16T04:41:40;4.93;;;1.40;;
28070;SDS011;15383;48.408;9.968;2023-07-16T04:44:06;4.68;;;1.50;;
28070;SDS011;15383;48.408;9.968;2023-07-16T04:46:31;3.03;;;1.40;;
28070;SDS011;15383;48.408;9.968;2023-07-16T04:48:57;2.38;;;1.50;;
28070;SDS011;15383;48.408;9.968;2023-07-16T04:51:22;1.45;;;1.20;;
28070;SDS011;15383;48.408;9.968;2023-07-16T04:53:48;3.38;;;1.60;;
28070;SDS011;15383;48.408;9.968;2023-07-16T04:56:14;5.90;;;2.00;;
28070;SDS011;15383;48.408;9.968;2023-07-16T04:58:41;5.13;;;1.60;;
28070;SDS011;15383;48.408;9.968;2023-07-16T05:01:07;4.57;;;1.60;;
28070;SDS011;15383;48.408;9.968;2023-07-16T05:03:34;2.30;;;1.45;;
28070;SDS011;15383;48.408;9.968;2023-07-16T05:06:00;3.63;;;1.38;;
28070;SDS011;15383;48.408;9.968;2023-07-16T05:08:26;4.78;;;1.60;;
28070;SDS011;15383;48.408;9.968;2023-07-16T05:10:52;7.82;;;1.95;;
28070;SDS011;15383;48.408;9.968;2023-07-16T05:13:17;1.88;;;1.40;;
28070;SDS011;15383;48.408;9.968;2023-07-16T05:15:43;2.28;;;1.35;;
28070;SDS011;15383;48.408;9.968;2023-07-16T05:18:09;1.35;;;1.17;;
28070;SDS011;15383;48.408;9.968;2023-07-16T05:20:35;2.78;;;1.50;;
28070;SDS011;15383;48.408;9.968;2023-07-16T05:23:00;2.00;;;1.25;;
28070;SDS011;15383;48.408;9.968;2023-07-16T05:25:26;2.08;;;1.30;;
28070;SDS011;15383;48.408;9.968;2023-07-16T05:27:51;3.25;;;1.25;;
28070;SDS011;15383;48.408;9.968;2023-07-16T05:30:17;4.18;;;1.60;;
28070;SDS011;15383;48.408;9.968;2023-07-16T05:32:43;3.60;;;1.50;;
28070;SDS011;15383;48.408;9.968;2023-07-16T05:35:09;4.00;;;1.25;;
28070;SDS011;15383;48.408;9.968;2023-07-16T05:37:35;5.28;;;1.40;;
28070;SDS011;15383;48.408;9.968;2023-07-16T05:40:00;1.95;;;1.08;;
28070;SDS011;15383;48.408;9.968;2023-07-16T05:42:28;2.38;;;1.35;;
28070;SDS011;15383;48.408;9.968;2023-07-16T05:44:53;3.33;;;1.10;;
28070;SDS011;15383;48.408;9.968;2023-07-16T05:47:19;2.15;;;1.30;;
28070;SDS011;15383;48.408;9.968;2023-07-16T05:49:45;1.40;;;1.30;;
28070;SDS011;15383;48.408;9.968;2023-07-16T05:52:10;5.28;;;1.50;;
28070;SDS011;15383;48.408;9.968;2023-07-16T05:54:36;1.38;;;1.27;;
28070;SDS011;15383;48.408;9.968;2023-07-16T05:57:02;5.63;;;1.40;;
28070;SDS011;15383;48.408;9.968;2023-07-16T05:59:28;2.70;;;1.20;;
28070;SDS011;15383;48.408;9.968;2023-07-16T06:01:53;6.32;;;1.27;;
28070;SDS011;15383;48.408;9.968;2023-07-16T06:04:20;2.03;;;1.70;;
28070;SDS011;15383;48.408;9.968;2023-07-16T06:06:45;1.70;;;1.27;;
28070;SDS011;15383;48.408;9.968;2023-07-16T06:09:11;2.15;;;1.20;;
28070;SDS011;15383;48.408;9.968;2023-07-16T06:11:37;2.38;;;1.60;;
28070;SDS011;15383;48.408;9.968;2023-07-16T06:14:02;3.08;;;1.45;;
28070;SDS011;15383;48.408;9.968;2023-07-16T06:16:28;2.75;;;1.30;;
28070;SDS011;15383;48.408;9.968;2023-07-16T06:18:53;4.70;;;1.52;;
28070;SDS011;15383;48.408;9.968;2023-07-16T06:21:19;7.63;;;1.92;;
28070;SDS011;15383;48.408;9.968;2023-07-16T06:23:45;4.72;;;1.80;;
28070;SDS011;15383;48.408;9.968;2023-07-16T06:26:10;2.58;;;1.50;;
28070;SDS011;15383;48.408;9.968;2023-07-16T06:28:36;2.40;;;1.38;;
28070;SDS011;15383;48.408;9.968;2023-07-16T06:31:01;2.70;;;1.75;;
28070;SDS011;15383;48.408;9.968;2023-07-16T06:33:27;2.90;;;1.73;;
28070;SDS011;15383;48.408;9.968;2023-07-16T06:35:53;1.63;;;1.30;;
28070;SDS011;15383;48.408;9.968;2023-07-16T06:38:19;2.22;;;1.38;;
28070;SDS011;15383;48.408;9.968;2023-07-16T06:40:49;2.85;;;1.35;;
28070;SDS011;15383;48.408;9.968;2023-07-16T06:43:17;1.33;;;1.20;;
28070;SDS011;15383;48.408;9.968;2023-07-16T06:45:43;1.90;;;1.10;;
28070;SDS011;15383;48.408;9.968;2023-07-16T06:48:08;5.75;;;1.70;;
28070;SDS011;15383;48.408;9.968;2023-07-16T06:50:34;2.22;;;1.23;;
28070;SDS011;15383;48.408;9.968;2023-07-16T06:53:00;1.95;;;1.25;;
28070;SDS011;15383;48.408;9.968;2023-07-16T06:55:25;1.30;;;1.20;;
28070;SDS011;15383;48.408;9.968;2023-07-16T06:57:51;2.83;;;1.40;;
28070;SDS011;15383;48.408;9.968;2023-07-16T07:00:17;2.30;;;1.15;;
28070;SDS011;15383;48.408;9.968;2023-07-16T07:02:43;2.17;;;1.45;;
28070;SDS011;15383;48.408;9.968;2023-07-16T07:05:08;1.35;;;1.25;;
28070;SDS011;15383;48.408;9.968;2023-07-16T07:07:34;2.40;;;1.48;;
28070;SDS011;15383;48.408;9.968;2023-07-16T07:10:00;2.15;;;1.20;;
28070;SDS011;15383;48.408;9.968;2023-07-16T07:12:26;1.73;;;1.52;;
28070;SDS011;15383;48.408;9.968;2023-07-16T07:14:51;5.32;;;1.85;;
28070;SDS011;15383;48.408;9.968;2023-07-16T07:17:17;2.15;;;1.40;;
28070;SDS011;15383;48.408;9.968;2023-07-16T07:19:43;4.38;;;1.58;;
28070;SDS011;15383;48.408;9.968;2023-07-16T07:22:09;2.03;;;1.52;;
28070;SDS011;15383;48.408;9.968;2023-07-16T07:24:35;2.35;;;1.77;;
28070;SDS011;15383;48.408;9.968;2023-07-16T07:27:00;1.90;;;1.65;;
28070;SDS011;15383;48.408;9.968;2023-07-16T07:29:26;4.20;;;2.17;;
28070;SDS011;15383;48.408;9.968;2023-07-16T07:31:52;2.63;;;1.85;;
28070;SDS011;15383;48.408;9.968;2023-07-16T07:34:18;1.63;;;1.50;;
28070;SDS011;15383;48.408;9.968;2023-07-16T07:36:44;1.90;;;1.60;;
28070;SDS011;15383;48.408;9.968;2023-07-16T07:39:10;2.05;;;1.60;;
28070;SDS011;15383;48.408;9.968;2023-07-16T07:41:38;4.10;;;2.17;;
28070;SDS011;15383;48.408;9.968;2023-07-16T07:44:04;3.60;;;2.03;;
28070;SDS011;15383;48.408;9.968;2023-07-16T07:46:29;3.05;;;2.03;;
28070;SDS011;15383;48.408;9.968;2023-07-16T07:48:55;2.90;;;1.92;;
28070;SDS011;15383;48.408;9.968;2023-07-16T07:51:21;6.13;;;2.17;;
28070;SDS011;15383;48.408;9.968;2023-07-16T07:53:46;3.58;;;2.33;;
28070;SDS011;15383;48.408;9.968;2023-07-16T07:56:12;3.28;;;2.03;;
28070;SDS011;15383;48.408;9.968;2023-07-16T07:58:37;2.58;;;1.90;;
28070;SDS011;15383;48.408;9.968;2023-07-16T08:01:07;3.15;;;1.67;;
28070;SDS011;15383;48.408;9.968;2023-07-16T08:03:33;3.60;;;1.40;;
28070;SDS011;15383;48.408;9.968;2023-07-16T08:05:59;4.45;;;1.58;;
28070;SDS011;15383;48.408;9.968;2023-07-16T08:08:25;5.53;;;1.70;;
28070;SDS011;15383;48.408;9.968;2023-07-16T08:10:50;7.35;;;1.75;;
28070;SDS011;15383;48.408;9.968;2023-07-16T08:13:16;4.95;;;1.70;;
28070;SDS011;15383;48.408;9.968;2023-07-16T08:15:42;4.75;;;2.45;;
28070;SDS011;15383;48.408;9.968;2023-07-16T08:18:08;6.75;;;2.67;;
28070;SDS011;15383;48.408;9.968;2023-07-16T08:20:35;2.78;;;2.40;;
28070;SDS011;15383;48.408;9.968;2023-07-16T08:23:01;3.38;;;2.55;;
28070;SDS011;15383;48.408;9.968;2023-07-16T08:25:27;3.17;;;2.70;;
28070;SDS011;15383;48.408;9.968;2023-07-16T08:27:52;8.32;;;2.58;;
28070;SDS011;15383;48.408;9.968;2023-07-16T08:30:18;6.90;;;3.42;;
28070;SDS011;15383;48.408;9.968;2023-07-16T08:32:43;6.03;;;3.20;;
28070;SDS011;15383;48.408;9.968;2023-07-16T08:35:09;6.00;;;3.08;;
28070;SDS011;15383;48.408;9.968;2023-07-16T08:37:41;3.58;;;2.70;;
28070;SDS011;15383;48.408;9.968;2023-07-16T08:40:10;3.45;;;2.47;;
28070;SDS011;15383;48.408;9.968;2023-07-16T08:42:38;5.10;;;2.70;;
28070;SDS011;15383;48.408;9.968;2023-07-16T08:45:07;2.97;;;2.23;;
28070;SDS011;15383;48.408;9.968;2023-07-16T08:47:35;2.20;;;1.80;;
28070;SDS011;15383;48.408;9.968;2023-07-16T08:50:01;3.05;;;2.45;;
28070;SDS011;15383;48.408;9.968;2023-07-16T08:52:27;5.60;;;1.92;;
28070;SDS011;15383;48.408;9.968;2023-07-16T08:54:53;3.00;;;1.55;;
28070;SDS011;15383;48.408;9.968;2023-07-16T08:57:19;2.67;;;1.90;;
28070;SDS011;15383;48.408;9.968;2023-07-16T08:59:49;1.73;;;1.58;;
28070;SDS011;15383;48.408;9.968;2023-07-16T09:02:19;2.67;;;1.75;;
28070;SDS011;15383;48.408;9.968;2023-07-16T09:04:48;3.45;;;1.42;;
28070;SDS011;15383;48.408;9.968;2023-07-16T09:07:16;1.55;;;1.40;;
28070;SDS011;15383;48.408;9.968;2023-07-16T09:09:42;3.45;;;1.60;;
28070;SDS011;15383;48.408;9.968;2023-07-16T09:12:11;1.48;;;1.38;;
28070;SDS011;15383;48.408;9.968;2023-07-16T09:14:37;3.88;;;1.48;;
28070;SDS011;15383;48.408;9.968;2023-07-16T09:17:05;2.05;;;1.48;;
28070;SDS011;15383;48.408;9.968;2023-07-16T09:19:33;2.03;;;1.55;;
28070;SDS011;15383;48.408;9.968;2023-07-16T09:21:59;4.30;;;1.70;;
28070;SDS011;15383;48.408;9.968;2023-07-16T09:24:24;2.85;;;1.23;;
28070;SDS011;15383;48.408;9.968;2023-07-16T09:26:51;5.20;;;1.50;;
28070;SDS011;15383;48.408;9.968;2023-07-16T09:29:17;2.15;;;1.63;;
28070;SDS011;15383;48.408;9.968;2023-07-16T09:34:19;4.75;;;1.73;;
28070;SDS011;15383;48.408;9.968;2023-07-16T09:36:47;1.48;;;1.38;;
28070;SDS011;15383;48.408;9.968;2023-07-16T09:39:15;1.75;;;1.52;;
28070;SDS011;15383;48.408;9.968;2023-07-16T09:41:43;4.13;;;1.40;;
28070;SDS011;15383;48.408;9.968;2023-07-16T09:44:13;1.08;;;1.05;;
28070;SDS011;15383;48.408;9.968;2023-07-16T09:46:39;3.38;;;1.20;;
28070;SDS011;15383;48.408;9.968;2023-07-16T09:49:05;1.65;;;1.52;;
28070;SDS011;15383;48.408;9.968;2023-07-16T09:51:31;1.88;;;1.20;;
28070;SDS011;15383;48.408;9.968;2023-07-16T09:53:59;1.48;;;1.38;;
28070;SDS011;15383;48.408;9.968;2023-07-16T09:56:26;2.10;;;1.63;;
28070;SDS011;15383;48.408;9.968;2023-07-16T09:59:02;1.67;;;1.42;;
28070;SDS011;15383;48.408;9.968;2023-07-16T10:01:33;2.65;;;1.30;;
28070;SDS011;15383;48.408;9.968;2023-07-16T10:04:13;1.67;;;1.42;;
28070;SDS011;15383;48.408;9.968;2023-07-16T10:06:50;2.30;;;1.63;;
28070;SDS011;15383;48.408;9.968;2023-07-16T10:12:14;2.35;;;1.48;;
28070;SDS011;15383;48.408;9.968;2023-07-16T10:17:06;1.85;;;1.13;;
28070;SDS011;15383;48.408;9.968;2023-07-16T10:20:17;1.27;;;1.17;;
28070;SDS011;15383;48.408;9.968;2023-07-16T10:27:45;2.25;;;1.70;;
28070;SDS011;15383;48.408;9.968;2023-07-16T10:30:12;1.60;;;1.30;;
28070;SDS011;15383;48.408;9.968;2023-07-16T10:32:38;9.30;;;1.98;;
28070;SDS011;15383;48.408;9.968;2023-07-16T10:35:05;7.38;;;1.50;;
28070;SDS011;15383;48.408;9.968;2023-07-16T10:37:31;6.75;;;1.35;;
28070;SDS011;15383;48.408;9.968;2023-07-16T10:39:58;2.53;;;1.20;;
28070;SDS011;15383;48.408;9.968;2023-07-16T10:42:25;2.55;;;1.50;;
28070;SDS011;15383;48.408;9.968;2023-07-16T10:44:53;2.15;;;1.70;;
28070;SDS011;15383;48.408;9.968;2023-07-16T10:49:50;2.55;;;1.20;;
28070;SDS011;15383;48.408;9.968;2023-07-16T10:52:19;5.05;;;1.70;;
28070;SDS011;15383;48.408;9.968;2023-07-16T10:54:51;3.13;;;1.70;;
28070;SDS011;15383;48.408;9.968;2023-07-16T10:57:20;2.92;;;1.65;;
28070;SDS011;15383;48.408;9.968;2023-07-16T10:59:50;2.05;;;1.42;;
28070;SDS011;15383;48.408;9.968;2023-07-16T11:02:16;2.17;;;1.77;;
28070;SDS011;15383;48.408;9.968;2023-07-16T11:04:43;1.67;;;1.58;;
28070;SDS011;15383;48.408;9.968;2023-07-16T11:07:10;2.33;;;1.85;;
28070;SDS011;15383;48.408;9.968;2023-07-16T11:09:43;2.05;;;1.45;;
28070;SDS011;15383;48.408;9.968;2023-07-16T11:12:11;3.38;;;1.35;;
28070;SDS011;15383;48.408;9.968;2023-07-16T11:14:38;2.17;;;1.30;;
28070;SDS011;15383;48.408;9.968;2023-07-16T11:17:08;2.25;;;1.50;;
28070;SDS011;15383;48.408;9.968;2023-07-16T11:19:34;1.90;;;1.50;;
28070;SDS011;15383;48.408;9.968;2023-07-16T11:22:01;6.82;;;1.50;;
28070;SDS011;15383;48.408;9.968;2023-07-16T11:24:27;1.88;;;1.40;;
28070;SDS011;15383;48.408;9.968;2023-07-16T11:26:54;3.25;;;1.20;;
28070;SDS011;15383;48.408;9.968;2023-07-16T11:29:22;1.58;;;1.48;;
28070;SDS011;15383;48.408;9.968;2023-07-16T11:31:51;2.45;;;1.50;;
28070;SDS011;15383;48.408;9.968;2023-07-16T11:34:23;3.08;;;1.60;;
28070;SDS011;15383;48.408;9.968;2023-07-16T11:36:49;2.40;;;1.50;;
28070;SDS011;15383;48.408;9.968;2023-07-16T11:39:15;3.92;;;1.35;;
28070;SDS011;15383;48.408;9.968;2023-07-16T11:41:41;2.00;;;1.45;;
28070;SDS011;15383;48.408;9.968;2023-07-16T11:44:07;1.90;;;1.45;;
28070;SDS011;15383;48.408;9.968;2023-07-16T11:46:33;1.58;;;1.48;;
28070;SDS011;15383;48.408;9.968;2023-07-16T11:48:59;1.73;;;1.30;;
28070;SDS011;15383;48.408;9.968;2023-07-16T11:51:25;1.92;;;1.55;;
28070;SDS011;15383;48.408;9.968;2023-07-16T11:53:51;2.42;;;1.52;;
28070;SDS011;15383;48.408;9.968;2023-07-16T11:56:17;1.70;;;1.20;;
28070;SDS011;15383;48.408;9.968;2023-07-16T11:58:43;3.08;;;1.80;;
28070;SDS011;15383;48.408;9.968;2023-07-16T12:01:09;1.98;;;1.63;;
28070;SDS011;15383;48.408;9.968;2023-07-16T12:03:35;1.92;;;1.50;;
28070;SDS011;15383;48.408;9.968;2023-07-16T12:06:00;5.93;;;1.38;;
28070;SDS011;15383;48.408;9.968;2023-07-16T12:08:26;1.70;;;1.42;;
28070;SDS011;15383;48.408;9.968;2023-07-16T12:10:51;2.50;;;1.67;;
28070;SDS011;15383;48.408;9.968;2023-07-16T12:13:17;2.13;;;1.52;;
28070;SDS011;15383;48.408;9.968;2023-07-16T12:15:43;2.63;;;1.73;;
28070;SDS011;15383;48.408;9.968;2023-07-16T12:18:27;3.65;;;1.48;;
28070;SDS011;15383;48.408;9.968;2023-07-16T12:20:52;4.05;;;1.35;;
28070;SDS011;15383;48.408;9.968;2023-07-16T12:23:18;2.67;;;1.60;;
28070;SDS011;15383;48.408;9.968;2023-07-16T12:25:43;4.07;;;1.77;;
28070;SDS011;15383;48.408;9.968;2023-07-16T12:28:09;3.10;;;1.58;;
28070;SDS011;15383;48.408;9.968;2023-07-16T12:30:35;2.55;;;1.42;;
28070;SDS011;15383;48.408;9.968;2023-07-16T12:33:00;2.20;;;1.48;;
28070;SDS011;15383;48.408;9.968;2023-07-16T12:35:26;2.78;;;1.50;;
28070;SDS011;15383;48.408;9.968;2023-07-16T12:37:51;2.75;;;1.40;;
28070;SDS011;15383;48.408;9.968;2023-07-16T12:40:17;2.35;;;1.33;;
28070;SDS011;15383;48.408;9.968;2023-07-16T12:42:43;3.28;;;1.85;;
28070;SDS011;15383;48.408;9.968;2023-07-16T12:45:09;2.47;;;1.42;;
28070;SDS011;15383;48.408;9.968;2023-07-16T12:47:34;2.40;;;1.70;;
28070;SDS011;15383;48.408;9.968;2023-07-16T12:50:00;1.70;;;1.35;;
28070;SDS011;15383;48.408;9.968;2023-07-16T12:52:25;2.30;;;1.77;;
28070;SDS011;15383;48.408;9.968;2023-07-16T12:54:51;3.05;;;1.73;;
28070;SDS011;15383;48.408;9.968;2023-07-16T12:57:17;3.78;;;1.50;;
28070;SDS011;15383;48.408;9.968;2023-07-16T12:59:43;2.25;;;1.77;;
28070;SDS011;15383;48.408;9.968;2023-07-16T13:02:08;1.58;;;1.48;;
28070;SDS011;15383;48.408;9.968;2023-07-16T13:04:34;2.53;;;1.75;;
28070;SDS011;15383;48.408;9.968;2023-07-16T13:06:59;8.02;;;1.98;;
28070;SDS011;15383;48.408;9.968;2023-07-16T13:09:26;4.53;;;1.80;;
28070;SDS011;15383;48.408;9.968;2023-07-16T13:11:51;1.75;;;1.38;;
28070;SDS011;15383;48.408;9.968;2023-07-16T13:14:17;3.08;;;1.80;;
28070;SDS011;15383;48.408;9.968;2023-07-16T13:16:42;2.55;;;1.55;;
28070;SDS011;15383;48.408;9.968;2023-07-16T13:19:08;5.47;;;2.08;;
28070;SDS011;15383;48.408;9.968;2023-07-16T13:21:34;2.40;;;1.48;;
28070;SDS011;15383;48.408;9.968;2023-07-16T13:23:59;3.97;;;1.35;;
28070;SDS011;15383;48.408;9.968;2023-07-16T13:26:25;2.17;;;1.52;;
28070;SDS011;15383;48.408;9.968;2023-07-16T13:28:51;3.85;;;1.60;;
28070;SDS011;15383;48.408;9.968;2023-07-16T13:31:17;2.80;;;1.65;;
28070;SDS011;15383;48.408;9.968;2023-07-16T13:33:43;4.85;;;1.90;;
28070;SDS011;15383;48.408;9.968;2023-07-16T13:36:08;5.50;;;1.50;;
28070;SDS011;15383;48.408;9.968;2023-07-16T13:38:34;3.33;;;2.17;;
28070;SDS011;15383;48.408;9.968;2023-07-16T13:40:59;2.65;;;1.85;;
28070;SDS011;15383;48.408;9.968;2023-07-16T13:43:25;2.28;;;1.60;;
28070;SDS011;15383;48.408;9.968;2023-07-16T13:45:51;2.65;;;1.50;;
28070;SDS011;15383;48.408;9.968;2023-07-16T13:48:16;3.05;;;1.70;;
28070;SDS011;15383;48.408;9.968;2023-07-16T13:50:42;2.78;;;1.95;;
28070;SDS011;15383;48.408;9.968;2023-07-16T13:53:07;1.85;;;1.42;;
28070;SDS011;15383;48.408;9.968;2023-07-16T13:55:33;2.75;;;1.63;;
28070;SDS011;15383;48.408;9.968;2023-07-16T13:57:59;2.60;;;1.85;;
28070;SDS011;15383;48.408;9.968;2023-07-16T14:00:24;2.15;;;1.35;;
28070;SDS011;15383;48.408;9.968;2023-07-16T14:02:50;2.75;;;1.50;;
28070;SDS011;15383;48.408;9.968;2023-07-16T14:05:16;2.08;;;1.77;;
28070;SDS011;15383;48.408;9.968;2023-07-16T14:07:42;2.95;;;2.10;;
28070;SDS011;15383;48.408;9.968;2023-07-16T14:10:08;2.55;;;2.00;;
28070;SDS011;15383;48.408;9.968;2023-07-16T14:12:34;2.65;;;1.90;;
28070;SDS011;15383;48.408;9.968;2023-07-16T14:14:59;2.28;;;1.90;;
28070;SDS011;15383;48.408;9.968;2023-07-16T14:17:25;3.10;;;1.83;;
28070;SDS011;15383;48.408;9.968;2023-07-16T14:19:51;3.15;;;1.70;;
28070;SDS011;15383;48.408;9.968;2023-07-16T14:22:17;1.77;;;1.45;;
28070;SDS011;15383;48.408;9.968;2023-07-16T14:24:42;1.88;;;1.38;;
28070;SDS011;15383;48.408;9.968;2023-07-16T14:27:08;3.17;;;1.70;;
28070;SDS011;15383;48.408;9.968;2023-07-16T14:29:34;3.60;;;1.88;;
28070;SDS011;15383;48.408;9.968;2023-07-16T14:32:00;3.10;;;1.88;;
28070;SDS011;15383;48.408;9.968;2023-07-16T14:34:26;2.05;;;1.60;;
28070;SDS011;15383;48.408;9.968;2023-07-16T14:36:52;2.67;;;1.80;;
28070;SDS011;15383;48.408;9.968;2023-07-16T14:39:18;2.50;;;2.00;;
28070;SDS011;15383;48.408;9.968;2023-07-16T14:41:44;5.63;;;2.13;;
28070;SDS011;15383;48.408;9.968;2023-07-16T14:44:10;3.13;;;1.92;;
28070;SDS011;15383;48.408;9.968;2023-07-16T14:46:38;1.63;;;1.25;;
28070;SDS011;15383;48.408;9.968;2023-07-16T14:49:04;2.00;;;1.77;;
28070;SDS011;15383;48.408;9.968;2023-07-16T14:51:31;6.45;;;1.83;;
28070;SDS011;15383;48.408;9.968;2023-07-16T14:53:57;4.22;;;2.08;;
28070;SDS011;15383;48.408;9.968;2023-07-16T14:56:22;2.88;;;1.70;;
28070;SDS011;15383;48.408;9.968;2023-07-16T14:58:48;1.83;;;1.60;;
28070;SDS011;15383;48.408;9.968;2023-07-16T15:01:13;3.80;;;2.00;;
28070;SDS011;15383;48.408;9.968;2023-07-16T15:03:39;4.03;;;2.00;;
28070;SDS011;15383;48.408;9.968;2023-07-16T15:06:06;2.35;;;1.95;;